Time;durP1;ratioP1;P1;durP2;ratioP2;P2;SDS_P1;SDS_P2;PMS_P1;PMS_P2;Temp;Humidity;BMP_temperature;BMP_pressure;BME280_temperature;BME280_humidity;BME280_pressure;Samples;Min_cycle;Max_cycle;Signal;HPM_P1;HPM_P2
2022/12/01 00:01:05;;;;;;;5.05;3.10;;;;;;;-9.01;69.68;99949.38;4986459;27;20045;-79
2022/12/01 00:03:37;;;;;;;7.72;3.50;;;;;;;-8.83;69.99;99958.03;4986277;27;20073;-79
2022/12/01 00:06:12;;;;;;;9.45;3.13;;;;;;;-8.77;69.67;99920.38;4982923;27;20067;-79
2022/12/01 00:10:24;;;;;;;8.52;3.13;;;;;;;-8.44;69.50;99960.97;4986454;27;20243;-79
2022/12/01 00:11:35;;;;;;;6.55;3.70;;;;;;;-8.26;68.87;99961.97;4975226;27;20051;-78
2022/12/01 00:14:06;;;;;;;7.47;3.17;;;;;;;-8.23;68.14;99955.31;4986060;27;20110;-79
2022/12/01 00:16:39;;;;;;;9.27;3.60;;;;;;;-8.16;68.48;99943.06;4983222;27;20131;-79
2022/12/01 00:19:10;;;;;;;9.70;4.35;;;;;;;-7.90;67.65;99961.28;4986302;27;20054;-79
2022/12/01 00:21:42;;;;;;;8.73;4.03;;;;;;;-8.01;67.34;99968.34;4986483;27;20050;-79
2022/12/01 00:24:13;;;;;;;7.93;2.50;;;;;;;-7.96;67.43;99966.03;4985884;27;20412;-79
2022/12/01 00:26:43;;;;;;;5.55;3.05;;;;;;;-7.91;67.48;99949.38;4985732;27;20250;-79
2022/12/01 00:29:14;;;;;;;6.93;3.80;;;;;;;-7.94;66.83;99962.78;4985640;27;20043;-79
2022/12/01 00:31:45;;;;;;;10.18;3.22;;;;;;;-7.99;67.05;99959.13;4985987;27;20054;-79
2022/12/01 00:34:23;;;;;;;5.15;2.67;;;;;;;-7.88;66.97;99960.56;4985788;27;20039;-79
2022/12/01 00:36:55;;;;;;;6.70;2.72;;;;;;;-7.61;67.38;99961.13;4974973;27;20043;-79
2022/12/01 00:39:26;;;;;;;6.43;3.53;;;;;;;-7.27;67.46;99949.25;4985914;27;20043;-79
2022/12/01 00:41:56;;;;;;;5.38;2.85;;;;;;;-6.76;66.24;99962.75;4985640;27;20057;-78
2022/12/01 00:44:27;;;;;;;4.25;2.78;;;;;;;-6.60;63.56;99970.28;4982464;27;20059;-78
2022/12/01 00:46:58;;;;;;;4.50;2.63;;;;;;;-6.78;62.74;99959.28;4989230;27;20045;-78
2022/12/01 00:49:28;;;;;;;3.83;2.70;;;;;;;-6.82;62.46;99972.59;4987352;27;20092;-78
2022/12/01 00:52:01;;;;;;;5.57;2.83;;;;;;;-6.97;61.52;99965.97;4985584;27;20047;-78
2022/12/01 00:54:32;;;;;;;5.38;2.80;;;;;;;-7.29;61.08;99974.53;4985481;27;20068;-78
2022/12/01 00:57:03;;;;;;;6.38;3.28;;;;;;;-7.46;60.92;99961.03;4985454;27;20035;-79
2022/12/01 00:59:34;;;;;;;6.43;3.75;;;;;;;-7.57;61.64;99967.22;4985144;27;20185;-78
2022/12/01 01:02:05;;;;;;;7.18;2.80;;;;;;;-7.55;61.43;99975.78;4985258;27;20364;-78
2022/12/01 01:04:37;;;;;;;5.45;2.75;;;;;;;-7.64;62.06;99952.47;4984629;27;20100;-78
2022/12/01 01:07:10;;;;;;;7.28;2.90;;;;;;;-7.21;61.47;99988.53;4979351;27;20056;-78
2022/12/01 01:09:42;;;;;;;10.25;3.30;;;;;;;-7.21;61.03;99987.66;4985495;27;20077;-78
2022/12/01 01:12:12;;;;;;;3.78;2.50;;;;;;;-7.43;60.45;99962.84;4984744;27;20133;-78
2022/12/01 01:14:43;;;;;;;6.68;2.92;;;;;;;-7.22;60.64;99980.81;4985071;27;20042;-78
2022/12/01 01:17:14;;;;;;;4.75;2.75;;;;;;;-7.31;60.37;99981.25;4985013;27;20047;-78
2022/12/01 01:19:44;;;;;;;7.18;3.15;;;;;;;-7.28;60.35;99985.59;4985020;27;20326;-78
2022/12/01 01:22:17;;;;;;;6.10;2.67;;;;;;;-7.26;60.30;99978.91;4984424;27;20100;-78
2022/12/01 01:24:48;;;;;;;6.18;2.95;;;;;;;-7.34;60.88;99981.06;4977273;27;20055;-78
2022/12/01 01:27:19;;;;;;;6.40;2.70;;;;;;;-7.44;61.04;99964.53;4984902;27;20059;-79
2022/12/01 01:29:49;;;;;;;4.32;3.40;;;;;;;-7.19;61.82;99981.84;4985002;27;20054;-78
2022/12/01 01:32:20;;;;;;;6.93;2.92;;;;;;;-6.99;61.54;99982.84;4984979;27;20054;-78
2022/12/01 01:34:51;;;;;;;9.48;2.80;;;;;;;-6.87;60.95;99982.53;4984027;27;20080;-78
2022/12/01 01:37:23;;;;;;;5.80;2.70;;;;;;;-7.21;60.80;99959.72;4984932;27;20051;-78
2022/12/01 01:39:54;;;;;;;4.80;2.70;;;;;;;-7.04;61.05;99981.75;4984666;27;20053;-78
2022/12/01 01:42:25;;;;;;;7.63;2.78;;;;;;;-7.16;60.26;99970.97;4984480;27;20355;-78
2022/12/01 01:44:57;;;;;;;5.60;2.88;;;;;;;-7.23;60.57;99968.94;4984490;27;20055;-78
2022/12/01 01:47:32;;;;;;;6.00;2.90;;;;;;;-7.07;60.05;99971.41;4977089;27;20366;-78
2022/12/01 01:50:09;;;;;;;5.28;2.67;;;;;;;-7.13;59.30;99970.25;4985118;27;20043;-78
2022/12/01 01:52:46;;;;;;;5.15;2.65;;;;;;;-7.09;60.00;99962.84;4974540;27;20089;-78
2022/12/01 01:55:17;;;;;;;4.20;2.50;;;;;;;-7.29;59.76;99933.06;4984167;27;20043;-78
2022/12/01 01:57:48;;;;;;;3.95;2.30;;;;;;;-7.71;58.60;99914.91;4978452;28;20036;-78
2022/12/01 02:00:20;;;;;;;6.32;3.30;;;;;;;-7.67;58.66;99939.63;4984775;27;20069;-78
2022/12/01 02:02:52;;;;;;;6.55;3.38;;;;;;;-7.63;59.12;99951.69;4984727;27;20051;-78
2022/12/01 02:05:26;;;;;;;6.18;2.90;;;;;;;-7.72;58.97;99931.78;4984558;28;20039;-79
2022/12/01 02:08:00;;;;;;;5.30;2.80;;;;;;;-8.07;59.07;99867.44;4983603;28;22349;-78
2022/12/01 02:10:48;;;;;;;3.80;2.50;;;;;;;-7.79;58.70;99933.94;4973861;28;20073;-78
2022/12/01 02:13:34;;;;;;;6.35;3.00;;;;;;;-7.77;58.64;99950.09;4973363;28;20047;-78
2022/12/01 02:16:13;;;;;;;4.63;2.65;;;;;;;-7.59;59.69;99938.34;4973532;28;20074;-78
2022/12/01 02:18:56;;;;;;;9.50;2.80;;;;;;;-7.50;59.15;99938.81;4973624;28;20046;-78
2022/12/01 02:21:37;;;;;;;4.95;2.58;;;;;;;-7.77;59.46;99942.50;4972755;28;20053;-78
2022/12/01 02:24:46;;;;;;;5.03;2.85;;;;;;;-7.75;60.39;99930.78;4980213;28;20059;-79
2022/12/01 02:27:29;;;;;;;4.72;2.47;;;;;;;-8.09;61.07;99893.53;4983813;28;20544;-79
2022/12/01 02:30:07;;;;;;;4.45;2.70;;;;;;;-7.73;60.77;99929.19;4973126;28;20038;-79
2022/12/01 02:32:53;;;;;;;4.00;2.42;;;;;;;-7.83;59.35;99923.63;4977294;28;20116;-78
2022/12/01 02:35:33;;;;;;;5.85;2.47;;;;;;;-7.79;58.43;99923.78;4973785;28;20035;-79
2022/12/01 02:38:14;;;;;;;3.95;2.67;;;;;;;-7.97;57.70;99918.66;4972950;28;20347;-79
2022/12/01 02:40:52;;;;;;;6.05;2.60;;;;;;;-8.48;58.33;99852.69;4972920;28;20249;-78
2022/12/01 02:43:30;;;;;;;6.72;3.10;;;;;;;-8.25;58.43;99902.88;4972830;28;20046;-78
2022/12/01 02:46:10;;;;;;;4.13;2.40;;;;;;;-8.07;58.75;99912.22;4972988;28;20043;-79
2022/12/01 02:48:49;;;;;;;5.43;2.83;;;;;;;-7.81;59.40;99942.34;4972944;28;20096;-78
2022/12/01 02:51:23;;;;;;;7.32;2.72;;;;;;;-7.84;59.98;99936.22;4973498;28;20047;-79
2022/12/01 02:53:56;;;;;;;4.88;2.65;;;;;;;-7.89;60.63;99928.38;4984054;28;20050;-79
2022/12/01 02:56:27;;;;;;;11.10;2.50;;;;;;;-7.86;60.31;99948.84;4984024;28;20039;-79
2022/12/01 02:58:57;;;;;;;4.35;2.45;;;;;;;-7.98;60.49;99940.59;4979988;28;20054;-79
2022/12/01 03:01:45;;;;;;;4.65;2.60;;;;;;;-8.03;61.02;99952.16;4986741;28;20040;-78
2022/12/01 03:04:37;;;;;;;5.88;2.53;;;;;;;-8.08;61.75;99948.53;4972782;28;20043;-78
2022/12/01 03:07:22;;;;;;;5.03;2.70;;;;;;;-8.07;61.94;99955.31;4964577;28;20738;-79
2022/12/01 03:10:02;;;;;;;4.78;2.67;;;;;;;-8.32;62.10;99950.63;4973761;27;20055;-78
2022/12/01 03:12:39;;;;;;;4.72;2.75;;;;;;;-8.43;62.72;99945.00;4976648;27;20043;-78
2022/12/01 03:15:18;;;;;;;4.05;2.65;;;;;;;-8.63;63.06;99918.59;4977212;27;20343;-79
2022/12/01 03:17:56;;;;;;;5.73;2.80;;;;;;;-8.45;62.71;99938.97;4977048;27;20043;-78
2022/12/01 03:20:34;;;;;;;5.97;2.53;;;;;;;-8.36;63.33;99953.75;4984703;27;20334;-78
2022/12/01 03:23:09;;;;;;;6.07;2.70;;;;;;;-8.55;61.75;99934.22;4986828;27;20039;-78
2022/12/01 03:25:45;;;;;;;3.92;2.53;;;;;;;-8.53;62.23;99950.38;4976006;27;20039;-78
2022/12/01 03:28:21;;;;;;;4.93;2.85;;;;;;;-8.55;61.85;99949.41;4986486;27;20047;-78
2022/12/01 03:30:56;;;;;;;6.10;2.78;;;;;;;-9.10;61.17;99909.25;4976379;27;20039;-78
2022/12/01 03:33:32;;;;;;;5.35;2.97;;;;;;;-8.88;61.75;99946.78;4987015;27;20053;-79
2022/12/01 03:36:08;;;;;;;4.53;2.95;;;;;;;-8.88;62.11;99935.75;4975994;27;20376;-78
2022/12/01 03:38:44;;;;;;;6.38;2.80;;;;;;;-8.78;61.63;99943.97;4976593;27;20047;-78
2022/12/01 03:41:19;;;;;;;4.07;2.50;;;;;;;-8.60;61.18;99943.22;4986664;27;20045;-79
2022/12/01 03:43:56;;;;;;;6.65;3.30;;;;;;;-8.68;60.82;99951.28;4976467;27;20051;-77
2022/12/01 03:46:35;;;;;;;4.03;2.60;;;;;;;-8.71;61.26;99905.53;4985470;27;20056;-80
2022/12/01 03:49:07;;;;;;;3.60;2.60;;;;;;;-8.42;61.11;99951.81;4986440;27;20220;-79
2022/12/01 03:51:48;;;;;;;4.00;2.70;;;;;;;-8.48;60.17;99959.09;4979258;27;20033;-81
2022/12/01 03:58:07;;;;;;;5.47;2.80;;;;;;;-8.42;60.04;99959.41;4925628;28;20051;-78
2022/12/01 04:00:54;;;;;;;5.25;2.70;;;;;;;-8.55;59.95;99962.09;4970223;27;20043;-78
2022/12/01 04:03:37;;;;;;;4.65;2.72;;;;;;;-8.56;60.43;99951.09;4962716;27;20407;-79
2022/12/01 04:06:27;;;;;;;5.03;2.50;;;;;;;-9.18;60.02;99865.81;4955903;28;20339;-78
2022/12/01 04:09:13;;;;;;;7.13;2.80;;;;;;;-8.42;60.22;99974.63;4959454;27;20242;-78
2022/12/01 04:14:36;;;;;;;3.55;2.47;;;;;;;-8.47;59.32;99970.97;4958278;27;20086;-78
2022/12/01 04:17:07;;;;;;;7.90;2.50;;;;;;;-8.34;59.84;99973.34;4976250;27;20089;-77
2022/12/01 04:19:37;;;;;;;8.82;2.80;;;;;;;-8.26;59.87;99972.09;4966291;27;20086;-77
2022/12/01 04:22:08;;;;;;;4.57;2.40;;;;;;;-8.31;60.05;99978.59;4968015;27;20045;-78
2022/12/01 04:24:40;;;;;;;4.88;2.63;;;;;;;-8.25;60.03;99967.91;4978511;27;20058;-78
2022/12/01 04:27:11;;;;;;;6.70;2.83;;;;;;;-8.20;60.14;99965.63;4970474;27;20118;-78
2022/12/01 04:29:42;;;;;;;5.63;2.72;;;;;;;-8.08;60.50;99966.28;4974075;27;20112;-78
2022/12/01 04:32:13;;;;;;;8.80;2.97;;;;;;;-8.16;60.31;99962.44;4975701;27;20051;-79
2022/12/01 04:34:44;;;;;;;5.38;2.65;;;;;;;-8.21;60.88;99938.50;4971936;27;20047;-79
2022/12/01 04:37:15;;;;;;;8.45;3.00;;;;;;;-8.02;60.80;99966.59;4973634;27;20096;-79
2022/12/01 04:39:47;;;;;;;6.15;3.10;;;;;;;-8.07;61.07;99978.16;4978206;27;20055;-79
2022/12/01 04:42:18;;;;;;;5.50;3.25;;;;;;;-8.18;60.67;99948.84;4968279;27;20056;-79
2022/12/01 04:44:49;;;;;;;5.05;2.80;;;;;;;-8.12;60.77;99975.34;4977089;27;20062;-79
2022/12/01 04:47:20;;;;;;;10.00;2.83;;;;;;;-8.07;60.69;99983.22;4974371;27;20054;-80
2022/12/01 04:49:51;;;;;;;4.03;2.38;;;;;;;-8.25;60.18;99983.97;4979391;27;20338;-79
2022/12/01 04:52:22;;;;;;;4.70;2.55;;;;;;;-8.40;60.12;99993.31;4979395;27;20050;-80
2022/12/01 04:54:54;;;;;;;6.68;2.92;;;;;;;-8.40;60.66;99998.38;4970207;27;21119;-80
2022/12/01 04:57:25;;;;;;;8.85;3.40;;;;;;;-8.46;61.03;99987.94;4967712;27;20047;-80
2022/12/01 04:59:56;;;;;;;4.97;2.65;;;;;;;-8.42;60.65;99989.81;4975664;27;20088;-80
2022/12/01 05:02:27;;;;;;;5.80;2.67;;;;;;;-8.55;58.97;99992.47;4972013;27;20059;-81
2022/12/01 05:04:58;;;;;;;6.40;2.70;;;;;;;-8.69;59.45;99979.91;4977499;27;20049;-80
2022/12/01 05:07:29;;;;;;;7.57;2.50;;;;;;;-8.59;59.42;99995.63;4965078;27;20072;-80
2022/12/01 05:10:01;;;;;;;6.32;3.10;;;;;;;-8.66;60.28;99983.41;4966559;27;20066;-80
2022/12/01 05:12:32;;;;;;;4.90;2.75;;;;;;;-8.51;60.38;99994.38;4971361;27;20062;-80
2022/12/01 05:15:03;;;;;;;6.20;2.83;;;;;;;-8.68;60.29;99996.88;4962790;28;20039;-81
2022/12/01 05:17:34;;;;;;;5.38;2.88;;;;;;;-8.65;60.40;100005.44;4964195;27;20063;-80
2022/12/01 05:23:00;;;;;;;4.72;2.60;;;;;;;-8.80;60.74;99996.19;4928254;27;20040;-80
2022/12/01 05:25:37;;;;;;;4.68;2.33;;;;;;;-8.82;60.84;100007.88;4978859;27;20092;-81
2022/12/01 05:28:08;;;;;;;5.38;2.83;;;;;;;-8.91;60.86;100013.31;4963114;27;20045;-81
2022/12/01 05:30:39;;;;;;;4.65;2.50;;;;;;;-9.01;61.27;100022.78;4975061;27;20050;-81
2022/12/01 05:33:10;;;;;;;3.25;2.45;;;;;;;-9.15;61.25;100011.91;4970676;27;20265;-81
2022/12/01 05:35:41;;;;;;;6.57;3.22;;;;;;;-9.38;61.77;100008.91;4968186;27;20046;-81
2022/12/01 05:38:12;;;;;;;4.43;2.88;;;;;;;-9.40;62.15;100019.72;4976829;27;20054;-80
2022/12/01 05:40:50;;;;;;;6.45;2.90;;;;;;;-9.63;62.69;99999.00;4976081;27;20076;-80
2022/12/01 05:43:22;;;;;;;3.60;2.67;;;;;;;-9.32;63.42;100008.38;4963285;27;20466;-81
2022/12/01 05:45:58;;;;;;;4.38;2.72;;;;;;;-9.23;62.76;100031.69;4958757;27;20580;-81
2022/12/01 05:48:29;;;;;;;5.03;2.95;;;;;;;-9.26;62.74;100040.75;4967164;27;20071;-81
2022/12/01 05:51:00;;;;;;;4.80;2.45;;;;;;;-9.27;62.89;100032.28;4967273;27;20357;-81
2022/12/01 05:53:31;;;;;;;7.45;2.65;;;;;;;-9.27;62.91;100037.34;4970209;27;20043;-81
2022/12/01 05:56:04;;;;;;;3.67;2.60;;;;;;;-9.18;62.75;100045.50;4969363;27;20048;-81
2022/12/01 05:58:35;;;;;;;20.58;14.48;;;;;;;-9.42;62.32;100041.50;4976373;27;20081;-81
2022/12/01 06:01:06;;;;;;;5.10;3.03;;;;;;;-9.53;62.93;100037.47;4965310;27;20427;-80
2022/12/01 06:03:37;;;;;;;5.20;2.50;;;;;;;-9.55;63.25;100045.84;4965117;28;20322;-81
2022/12/01 06:06:08;;;;;;;8.07;2.55;;;;;;;-9.52;63.57;100067.03;4984849;28;20070;-81
2022/12/01 06:08:42;;;;;;;6.32;2.60;;;;;;;-9.61;64.00;100064.81;4964894;28;20111;-80
2022/12/01 06:11:14;;;;;;;6.13;2.38;;;;;;;-9.49;64.25;100079.88;4972570;28;20289;-81
2022/12/01 06:13:45;;;;;;;5.47;2.28;;;;;;;-9.46;64.65;100077.50;4974498;28;20053;-80
2022/12/01 06:16:16;;;;;;;5.60;3.13;;;;;;;-9.59;64.43;100084.38;4970412;28;20052;-80
2022/12/01 06:18:47;;;;;;;4.82;2.63;;;;;;;-9.60;65.31;100087.69;4973753;28;20058;-80
2022/12/01 06:21:18;;;;;;;3.40;2.42;;;;;;;-9.62;65.25;100089.25;4976542;28;20155;-80
2022/12/01 06:23:49;;;;;;;5.18;2.92;;;;;;;-9.87;65.01;100059.06;4975573;28;20085;-80
2022/12/01 06:26:21;;;;;;;6.25;2.97;;;;;;;-9.79;65.35;100084.81;4983570;28;20443;-80
2022/12/01 06:28:52;;;;;;;5.25;2.70;;;;;;;-9.90;65.69;100095.94;4977815;28;20043;-80
2022/12/01 06:31:24;;;;;;;14.35;10.10;;;;;;;-9.92;66.52;100107.59;4966483;28;20050;-80
2022/12/01 06:33:55;;;;;;;5.60;3.53;;;;;;;-9.93;67.20;100100.78;4977275;28;20384;-80
2022/12/01 06:36:26;;;;;;;3.90;2.88;;;;;;;-9.92;67.78;100098.34;4982715;28;20110;-82
2022/12/01 06:38:59;;;;;;;6.20;2.83;;;;;;;-9.92;67.86;100092.44;4973286;28;20061;-80
2022/12/01 06:41:36;;;;;;;14.35;4.95;;;;;;;-9.90;68.35;100100.97;4969043;28;20055;-78
2022/12/01 06:44:20;;;;;;;6.97;4.00;;;;;;;-9.98;68.09;100108.97;4977495;28;20050;-80
2022/12/01 06:46:52;;;;;;;12.07;4.10;;;;;;;-10.02;68.40;100112.06;4963174;27;20057;-78
2022/12/01 06:49:23;;;;;;;9.30;3.47;;;;;;;-10.00;69.21;100107.97;4976566;27;20327;-79
2022/12/01 06:51:54;;;;;;;9.43;4.22;;;;;;;-9.92;69.19;100112.66;4973492;27;20335;-78
2022/12/01 06:54:28;;;;;;;6.28;3.33;;;;;;;-9.92;69.27;100117.69;4974035;27;20035;-78
2022/12/01 06:57:03;;;;;;;7.35;3.20;;;;;;;-9.91;69.55;100110.19;4966342;27;20106;-80
2022/12/01 06:59:35;;;;;;;6.70;3.60;;;;;;;-9.75;70.30;100114.56;4982938;27;20301;-79
2022/12/01 07:05:59;;;;;;;6.10;3.67;;;;;;;-10.04;70.10;100108.56;4958454;27;20056;-80
2022/12/01 07:08:36;;;;;;;7.13;3.55;;;;;;;-10.07;69.76;100121.00;4974470;27;20051;-80
2022/12/01 07:11:11;;;;;;;7.75;3.42;;;;;;;-10.17;69.45;100116.16;4963460;27;20049;-80
2022/12/01 07:13:45;;;;;;;6.03;2.80;;;;;;;-10.32;69.72;100105.13;4968943;27;20043;-80
2022/12/01 07:16:17;;;;;;;5.13;2.97;;;;;;;-10.35;70.20;100100.75;4976263;27;20105;-80
2022/12/01 07:18:48;;;;;;;4.10;2.78;;;;;;;-10.15;70.37;100119.66;4966672;27;20538;-80
2022/12/01 07:21:19;;;;;;;5.68;2.72;;;;;;;-10.11;69.99;100125.78;4974210;27;20488;-81
2022/12/01 07:23:53;;;;;;;4.28;2.60;;;;;;;-10.13;70.18;100128.22;4972613;27;20053;-81
2022/12/01 07:26:24;;;;;;;8.32;3.20;;;;;;;-10.21;70.29;100134.41;4977654;27;20044;-81
2022/12/01 07:28:56;;;;;;;5.63;2.90;;;;;;;-10.30;70.07;100123.78;4974067;27;20109;-80
2022/12/01 07:31:28;;;;;;;5.72;2.90;;;;;;;-10.25;69.80;100124.91;4965294;27;20056;-80
2022/12/01 07:33:59;;;;;;;6.72;2.72;;;;;;;-10.20;70.04;100128.59;4974693;27;20051;-79
2022/12/01 07:36:31;;;;;;;6.40;3.08;;;;;;;-10.20;69.88;100126.06;4967895;27;20040;-81
2022/12/01 07:39:06;;;;;;;4.70;3.03;;;;;;;-10.05;70.33;100131.22;4974441;27;20046;-80
2022/12/01 07:41:37;;;;;;;6.45;3.33;;;;;;;-10.05;70.27;100132.09;4971294;27;20052;-79
2022/12/01 07:44:17;;;;;;;7.20;2.92;;;;;;;-10.01;70.08;100139.09;4968426;28;20038;-80
2022/12/01 07:46:53;;;;;;;5.43;3.55;;;;;;;-10.03;70.14;100135.59;4966838;27;20039;-80
2022/12/01 07:49:24;;;;;;;5.85;3.30;;;;;;;-10.13;70.16;100118.09;4985818;27;20047;-78
2022/12/01 07:51:56;;;;;;;7.00;3.10;;;;;;;-10.06;69.80;100132.88;4968940;27;20047;-78
2022/12/01 07:54:27;;;;;;;8.90;3.65;;;;;;;-10.11;70.41;100134.22;4968393;27;20346;-78
2022/12/01 07:56:58;;;;;;;6.35;3.25;;;;;;;-10.02;70.56;100131.41;4968606;27;20045;-79
2022/12/01 07:59:33;;;;;;;4.25;2.92;;;;;;;-9.95;70.71;100132.69;4976451;27;20055;-78
2022/12/01 08:02:04;;;;;;;7.43;3.17;;;;;;;-9.96;70.68;100135.97;4975613;27;20384;-78
2022/12/01 08:04:35;;;;;;;5.20;3.00;;;;;;;-9.92;70.75;100138.78;4966100;28;20047;-79
2022/12/01 08:07:06;;;;;;;4.13;2.83;;;;;;;-9.96;70.83;100135.97;4968560;27;20093;-79
2022/12/01 08:09:37;;;;;;;6.95;3.05;;;;;;;-10.02;70.93;100132.28;4963561;27;20095;-80
2022/12/01 08:12:09;;;;;;;5.15;2.97;;;;;;;-10.02;70.69;100136.47;4967981;27;20075;-80
2022/12/01 08:14:44;;;;;;;7.35;3.60;;;;;;;-10.16;70.94;100127.13;4977569;27;20354;-79
2022/12/01 08:17:15;;;;;;;9.38;4.20;;;;;;;-9.87;71.28;100126.44;4968863;27;20048;-79
2022/12/01 08:19:46;;;;;;;10.63;4.50;;;;;;;-9.96;71.33;100110.69;4968551;27;20272;-79
2022/12/01 08:22:17;;;;;;;15.15;6.05;;;;;;;-9.90;70.97;100141.44;4978812;27;20062;-78
2022/12/01 08:24:48;;;;;;;16.00;6.50;;;;;;;-9.98;71.05;100134.22;4985184;27;20053;-79
2022/12/01 08:27:19;;;;;;;16.73;6.65;;;;;;;-9.90;71.54;100131.31;4977241;27;20074;-78
2022/12/01 08:29:52;;;;;;;10.40;5.35;;;;;;;-9.82;70.93;100130.13;4976906;27;20043;-79
2022/12/01 08:32:22;;;;;;;8.65;4.55;;;;;;;-9.79;70.92;100125.25;4987485;27;20047;-78
2022/12/01 08:34:53;;;;;;;8.45;3.60;;;;;;;-9.90;70.82;100111.09;4972083;27;20115;-79
2022/12/01 08:37:24;;;;;;;12.25;4.20;;;;;;;-9.88;70.59;100119.63;4972359;27;20031;-78
2022/12/01 08:39:55;;;;;;;8.63;3.88;;;;;;;-9.57;71.49;100113.16;4975810;27;20106;-80
2022/12/01 08:42:29;;;;;;;6.18;3.63;;;;;;;-9.56;71.13;100119.97;4974503;27;20505;-80
2022/12/01 08:45:10;;;;;;;8.90;4.18;;;;;;;-9.78;70.33;100111.84;4973514;27;20067;-78
2022/12/01 08:51:30;;;;;;;8.40;3.55;;;;;;;-9.84;70.50;100111.47;4931747;28;20056;-77
2022/12/01 08:54:02;;;;;;;8.80;3.72;;;;;;;-9.99;70.60;100093.69;4953613;28;20391;-77
2022/12/01 08:56:35;;;;;;;4.60;3.22;;;;;;;-9.87;70.33;100101.16;4952129;28;20040;-78
2022/12/01 08:59:08;;;;;;;7.15;3.25;;;;;;;-9.95;70.01;100115.00;4953198;28;20052;-76
2022/12/01 09:01:53;;;;;;;5.80;3.20;;;;;;;-10.04;70.21;100123.72;4952536;28;20128;-79
2022/12/01 09:04:25;;;;;;;7.10;3.10;;;;;;;-10.24;70.51;100074.44;4943614;28;20154;-79
2022/12/01 09:06:57;;;;;;;5.32;2.70;;;;;;;-9.94;70.65;100109.16;4951913;28;20036;-78
2022/12/01 09:09:30;;;;;;;6.30;2.45;;;;;;;-9.99;70.40;100119.81;4954535;28;20047;-77
2022/12/01 09:12:01;;;;;;;3.33;2.45;;;;;;;-9.96;70.45;100100.59;4947734;28;20106;-77
2022/12/01 09:14:37;;;;;;;5.47;2.60;;;;;;;-9.80;70.23;100123.53;4956224;28;20062;-77
2022/12/01 09:17:10;;;;;;;4.28;2.65;;;;;;;-9.91;70.56;100134.59;4956034;28;20327;-77
2022/12/01 09:19:44;;;;;;;3.05;2.30;;;;;;;-9.96;70.66;100141.03;4944770;28;20120;-77
2022/12/01 09:22:17;;;;;;;6.18;2.90;;;;;;;-9.95;71.16;100122.56;4949873;28;20059;-77
2022/12/01 09:24:50;;;;;;;6.85;3.10;;;;;;;-9.74;71.09;100134.00;4953998;28;20047;-79
2022/12/01 09:27:27;;;;;;;8.75;3.53;;;;;;;-9.65;71.17;100137.13;4945076;28;20302;-78
2022/12/01 09:29:59;;;;;;;6.85;2.70;;;;;;;-9.81;70.77;100152.09;4949563;28;20049;-78
2022/12/01 09:32:34;;;;;;;8.88;3.08;;;;;;;-9.91;71.09;100150.63;4956742;28;20055;-78
2022/12/01 09:35:11;;;;;;;5.20;2.88;;;;;;;-10.08;71.52;100131.91;4952390;28;20048;-78
2022/12/01 09:37:51;;;;;;;5.75;2.55;;;;;;;-9.91;71.39;100154.81;4946529;28;20041;-77
2022/12/01 09:40:32;;;;;;;6.80;2.50;;;;;;;-10.21;71.99;100105.00;4952708;28;20089;-77
2022/12/01 09:43:14;;;;;;;4.72;2.45;;;;;;;-9.93;72.10;100149.69;4948394;28;20089;-79
2022/12/01 09:45:49;;;;;;;5.45;2.78;;;;;;;-9.91;72.29;100139.66;4941135;28;20352;-80
2022/12/01 09:48:27;;;;;;;3.03;2.30;;;;;;;-10.09;71.88;100109.91;4952603;28;20098;-78
2022/12/01 09:51:01;;;;;;;3.90;2.50;;;;;;;-10.15;71.60;100104.50;4951736;28;20119;-77
2022/12/01 09:53:37;;;;;;;5.80;2.60;;;;;;;-10.01;71.60;100131.53;4942871;28;20082;-78
2022/12/01 09:56:20;;;;;;;2.90;2.42;;;;;;;-10.13;71.51;100123.16;4956385;28;20046;-78
2022/12/01 09:58:58;;;;;;;7.60;2.58;;;;;;;-10.00;71.24;100140.84;4943801;28;20156;-77
2022/12/01 10:01:39;;;;;;;7.78;2.95;;;;;;;-10.01;71.14;100141.63;4953621;28;20562;-78
2022/12/01 10:04:18;;;;;;;8.02;3.78;;;;;;;-9.86;71.30;100138.28;4945040;28;20341;-80
2022/12/01 10:06:59;;;;;;;8.93;3.83;;;;;;;-9.94;70.79;100124.31;4952878;28;20467;-81
2022/12/01 10:09:37;;;;;;;12.77;4.10;;;;;;;-10.19;70.61;100084.84;4945384;28;20068;-79
2022/12/01 10:12:15;;;;;;;18.42;5.82;;;;;;;-9.95;70.25;100142.78;4945197;28;20059;-79
2022/12/01 10:14:49;;;;;;;21.33;6.85;;;;;;;-10.71;70.92;100018.44;4951802;28;20271;-79
2022/12/01 10:17:29;;;;;;;9.10;4.45;;;;;;;-9.88;70.96;100144.91;4949491;28;20493;-79
2022/12/01 10:20:12;;;;;;;6.00;3.45;;;;;;;-9.94;70.90;100109.16;4948360;28;20044;-78
2022/12/01 10:23:21;;;;;;;3.92;2.55;;;;;;;-9.75;70.42;100147.44;4949203;28;20047;-78
2022/12/01 10:25:58;;;;;;;3.60;2.50;;;;;;;-9.64;70.98;100156.56;4947704;28;20058;-78
2022/12/01 10:28:58;;;;;;;4.90;2.65;;;;;;;-9.66;71.07;100145.50;4953413;28;20125;-78
2022/12/01 10:31:36;;;;;;;6.70;3.22;;;;;;;-9.59;71.91;100145.06;4943633;28;20067;-80
2022/12/01 10:34:16;;;;;;;4.78;2.58;;;;;;;-9.93;71.40;100113.41;4958114;28;20101;-76
2022/12/01 10:36:51;;;;;;;2.90;2.20;;;;;;;-9.72;71.74;100127.38;4947845;28;20043;-79
2022/12/01 10:39:28;;;;;;;6.18;2.80;;;;;;;-9.76;71.77;100135.56;4950189;28;20047;-78
2022/12/01 10:42:05;;;;;;;4.13;2.83;;;;;;;-9.80;72.03;100139.56;4957401;28;20102;-80
2022/12/01 10:44:36;;;;;;;4.78;2.33;;;;;;;-9.89;72.10;100122.94;4957436;28;20053;-79
2022/12/01 10:47:38;;;;;;;5.00;2.40;;;;;;;-9.76;72.49;100135.56;4951637;28;20052;-81
2022/12/01 10:50:56;;;;;;;5.50;3.35;;;;;;;-9.83;72.28;100128.41;4943304;28;20036;-79
2022/12/01 10:53:35;;;;;;;6.07;3.50;;;;;;;-9.93;72.62;100080.53;4949522;28;20051;-80
2022/12/01 10:56:10;;;;;;;8.77;4.20;;;;;;;-9.72;71.87;100145.09;4942141;28;20244;-79
2022/12/01 10:58:50;;;;;;;8.30;4.45;;;;;;;-9.68;71.81;100148.69;4944975;28;20118;-80
2022/12/01 11:01:29;;;;;;;5.28;3.15;;;;;;;-9.79;72.05;100135.38;4944788;28;20058;-80
2022/12/01 11:04:06;;;;;;;5.15;3.38;;;;;;;-9.88;72.08;100134.78;4952971;28;20052;-80
2022/12/01 11:06:41;;;;;;;5.75;2.65;;;;;;;-9.86;72.67;100143.34;4953949;28;20127;-81
2022/12/01 11:09:21;;;;;;;6.22;3.30;;;;;;;-9.99;72.50;100142.56;4949245;28;20067;-80
2022/12/01 11:11:59;;;;;;;12.63;5.13;;;;;;;-10.05;73.06;100132.09;4947879;28;20058;-80
2022/12/01 11:14:41;;;;;;;7.22;3.83;;;;;;;-9.87;72.91;100147.53;4949743;28;20049;-81
2022/12/01 11:17:28;;;;;;;11.25;3.30;;;;;;;-10.01;72.75;100116.34;4944887;28;20047;-81
2022/12/01 11:20:30;;;;;;;3.47;2.60;;;;;;;-9.82;72.82;100145.31;4947201;28;20212;-79
2022/12/01 11:23:30;;;;;;;5.15;2.97;;;;;;;-9.71;73.18;100143.44;4939939;28;20092;-79
2022/12/01 11:26:08;;;;;;;6.32;3.15;;;;;;;-9.82;72.81;100145.31;4935660;28;20115;-79
2022/12/01 11:28:45;;;;;;;5.43;3.10;;;;;;;-9.77;73.25;100131.28;4954451;28;20387;-79
2022/12/01 11:31:16;;;;;;;7.35;3.20;;;;;;;-9.66;73.11;100148.03;4952964;28;20078;-79
2022/12/01 11:33:53;;;;;;;10.70;4.00;;;;;;;-9.76;72.92;100135.56;4955963;28;20055;-80
2022/12/01 11:36:32;;;;;;;4.65;2.95;;;;;;;-9.74;73.18;100151.69;4945019;28;20043;-79
2022/12/01 11:39:05;;;;;;;5.63;2.90;;;;;;;-9.73;73.43;100161.06;4928513;28;20040;-79
2022/12/01 11:41:41;;;;;;;6.43;3.30;;;;;;;-9.77;73.39;100154.06;4961927;27;20040;-79
2022/12/01 11:44:30;;;;;;;7.28;3.30;;;;;;;-9.85;73.00;100155.22;4943656;28;20299;-80
2022/12/01 11:47:24;;;;;;;8.93;3.00;;;;;;;-10.26;73.75;100088.66;4946354;28;20347;-79
2022/12/01 11:49:57;;;;;;;9.57;4.53;;;;;;;-9.81;74.08;100157.16;4955288;28;20375;-79
2022/12/01 11:52:30;;;;;;;12.40;7.25;;;;;;;-9.64;73.99;100176.78;4953716;28;20388;-79
2022/12/01 11:55:22;;;;;;;23.50;11.05;;;;;;;-9.57;73.85;100183.97;4947388;28;20040;-79
2022/12/01 11:57:57;;;;;;;8.93;4.43;;;;;;;-9.65;73.90;100172.53;4942871;28;20044;-79
2022/12/01 12:00:30;;;;;;;10.45;4.55;;;;;;;-9.81;74.06;100147.03;4955799;28;20285;-79
2022/12/01 12:03:20;;;;;;;7.35;4.45;;;;;;;-9.84;74.02;100167.06;4947631;28;20048;-79
2022/12/01 12:06:19;;;;;;;7.15;4.40;;;;;;;-9.79;74.73;100160.66;4943429;28;21416;-79
2022/12/01 12:09:39;;;;;;;7.32;3.95;;;;;;;-9.95;75.06;100132.69;4940490;28;20059;-79
2022/12/01 12:12:31;;;;;;;13.40;5.57;;;;;;;-9.80;75.05;100158.91;4949213;28;20046;-79
2022/12/01 12:15:17;;;;;;;12.50;5.97;;;;;;;-9.82;74.96;100175.63;4947402;28;20057;-79
2022/12/01 12:18:03;;;;;;;15.50;5.72;;;;;;;-9.93;75.29;100157.28;4943303;28;20036;-79
2022/12/01 12:20:51;;;;;;;15.30;6.35;;;;;;;-10.34;75.36;100081.41;4945249;28;20048;-78
2022/12/01 12:23:56;;;;;;;17.73;7.05;;;;;;;-10.05;75.10;100121.97;4965011;28;20065;-79